Time;durP1;ratioP1;P1;durP2;ratioP2;P2;SDS_P1;SDS_P2;PMS_P1;PMS_P2;Temp;Humidity;BMP_temperature;BMP_pressure;BME280_temperature;BME280_humidity;BME280_pressure;Samples;Min_cycle;Max_cycle;Signal;HPM_P1;HPM_P2
2021/07/31 00:01:39;;;;;;;6.60;5.60;;;20.90;99.90;;;;;;5034722;28;20456;-69
2021/07/31 00:04:06;;;;;;;7.67;6.20;;;20.80;99.90;;;;;;5036056;28;20452;-69
2021/07/31 00:06:33;;;;;;;5.93;5.07;;;20.80;99.90;;;;;;5035478;28;20475;-69
2021/07/31 00:09:00;;;;;;;6.00;5.37;;;20.70;99.90;;;;;;5035528;28;21011;-69
2021/07/31 00:11:27;;;;;;;7.37;6.60;;;20.70;99.90;;;;;;5035540;28;20470;-69
2021/07/31 00:13:55;;;;;;;6.90;5.97;;;20.70;99.90;;;;;;5035628;28;20820;-70
2021/07/31 00:16:22;;;;;;;7.27;6.53;;;20.70;99.90;;;;;;5035228;28;20836;-69
2021/07/31 00:18:49;;;;;;;6.93;6.03;;;20.80;99.90;;;;;;5035640;28;20784;-69
2021/07/31 00:21:16;;;;;;;5.97;5.37;;;20.80;99.90;;;;;;5035714;28;20540;-69
2021/07/31 00:23:42;;;;;;;8.00;6.47;;;20.80;99.90;;;;;;5035365;28;20445;-69
2021/07/31 00:26:09;;;;;;;7.90;6.23;;;20.80;99.90;;;;;;5034919;28;20454;-69
2021/07/31 00:28:36;;;;;;;7.70;4.87;;;20.90;99.90;;;;;;5035259;28;20496;-69
2021/07/31 00:31:04;;;;;;;5.10;4.60;;;20.80;99.90;;;;;;5035069;28;21018;-69
2021/07/31 00:33:31;;;;;;;7.80;5.10;;;20.80;99.90;;;;;;5035216;28;20452;-69
2021/07/31 00:35:58;;;;;;;6.07;5.17;;;20.80;99.90;;;;;;5034925;28;20815;-69
2021/07/31 00:38:25;;;;;;;5.37;4.50;;;20.90;99.90;;;;;;5034852;28;20524;-69
2021/07/31 00:40:51;;;;;;;5.30;4.70;;;20.90;99.90;;;;;;5034813;28;20870;-69
2021/07/31 00:43:18;;;;;;;5.23;4.73;;;20.80;99.90;;;;;;5035012;28;20537;-69
2021/07/31 00:45:45;;;;;;;5.83;5.07;;;20.70;99.90;;;;;;5034876;28;20789;-69
2021/07/31 00:48:14;;;;;;;5.67;5.10;;;20.80;99.90;;;;;;5034863;28;20472;-69
2021/07/31 00:50:41;;;;;;;5.70;5.10;;;20.80;99.90;;;;;;5034905;28;20540;-69
2021/07/31 00:53:07;;;;;;;4.57;4.17;;;20.80;99.90;;;;;;5034854;28;20455;-69
2021/07/31 00:55:36;;;;;;;5.17;4.67;;;20.70;99.90;;;;;;5034992;28;20458;-69
2021/07/31 00:58:03;;;;;;;5.70;5.00;;;20.70;99.90;;;;;;5034841;28;20527;-69
2021/07/31 01:00:30;;;;;;;5.50;4.70;;;20.70;99.90;;;;;;5034725;28;20540;-69
2021/07/31 01:02:56;;;;;;;5.63;5.00;;;20.60;99.90;;;;;;5034696;28;20532;-69
2021/07/31 01:05:24;;;;;;;6.50;5.20;;;20.70;99.90;;;;;;5034448;28;20449;-69
2021/07/31 01:07:52;;;;;;;4.70;4.17;;;20.70;99.90;;;;;;5034285;28;20466;-69
2021/07/31 01:10:20;;;;;;;5.57;4.60;;;20.60;99.90;;;;;;5034485;28;20486;-69
2021/07/31 01:12:49;;;;;;;5.30;4.43;;;20.70;99.90;;;;;;5034273;28;20444;-69
2021/07/31 01:15:16;;;;;;;4.73;4.27;;;20.60;99.90;;;;;;5034239;28;20449;-70
2021/07/31 01:17:43;;;;;;;5.70;4.80;;;20.60;99.90;;;;;;5034242;28;20515;-69
2021/07/31 01:20:11;;;;;;;4.00;3.67;;;20.60;99.90;;;;;;5034380;28;20559;-69
2021/07/31 01:22:40;;;;;;;3.90;3.30;;;20.70;99.90;;;;;;5034336;28;20445;-69
2021/07/31 01:25:08;;;;;;;4.83;4.20;;;20.70;99.90;;;;;;5033807;28;20454;-70
2021/07/31 01:27:35;;;;;;;3.90;3.33;;;20.70;99.90;;;;;;5034253;28;20465;-69
2021/07/31 01:30:02;;;;;;;3.57;3.27;;;20.70;99.90;;;;;;5033946;28;20481;-70
2021/07/31 01:32:29;;;;;;;3.67;3.37;;;20.70;99.90;;;;;;5034222;28;20866;-69
2021/07/31 01:34:56;;;;;;;5.20;3.53;;;20.60;99.90;;;;;;5033927;28;20461;-69
2021/07/31 01:37:23;;;;;;;4.13;3.53;;;20.60;99.90;;;;;;5034275;28;20560;-69
2021/07/31 01:39:51;;;;;;;4.93;3.50;;;20.60;99.90;;;;;;5034042;28;20446;-69
2021/07/31 01:42:18;;;;;;;3.97;3.17;;;20.60;99.90;;;;;;5034023;28;20806;-69
2021/07/31 01:44:45;;;;;;;3.03;2.73;;;20.60;99.90;;;;;;5033799;28;20827;-69
2021/07/31 01:47:12;;;;;;;3.53;3.23;;;20.60;99.90;;;;;;5033696;28;20500;-69
2021/07/31 01:49:39;;;;;;;5.20;3.00;;;20.60;99.90;;;;;;5033805;28;20485;-69
2021/07/31 01:52:06;;;;;;;2.90;2.47;;;20.60;99.90;;;;;;5033843;28;20865;-69
2021/07/31 01:54:32;;;;;;;3.43;2.50;;;20.60;99.90;;;;;;5033610;28;20456;-69
2021/07/31 01:57:01;;;;;;;3.07;2.47;;;20.60;99.90;;;;;;5033368;28;20513;-69
2021/07/31 01:59:27;;;;;;;3.07;2.50;;;20.60;99.90;;;;;;5033775;28;20475;-69
2021/07/31 02:01:54;;;;;;;3.00;2.20;;;20.60;99.90;;;;;;5033646;28;20451;-69
2021/07/31 02:04:21;;;;;;;2.50;2.23;;;20.50;99.90;;;;;;5033923;28;20449;-69
2021/07/31 02:06:48;;;;;;;2.50;2.30;;;20.40;99.90;;;;;;5033206;28;20561;-69
2021/07/31 02:09:15;;;;;;;2.53;2.30;;;20.40;99.90;;;;;;5033595;28;20568;-69
2021/07/31 02:11:42;;;;;;;2.57;2.37;;;20.30;99.90;;;;;;5033557;28;20465;-69
2021/07/31 02:14:10;;;;;;;2.87;2.50;;;20.40;99.90;;;;;;5033569;28;20448;-69
2021/07/31 02:16:37;;;;;;;3.27;2.10;;;20.40;99.90;;;;;;5032977;28;20489;-70
2021/07/31 02:19:03;;;;;;;2.30;1.83;;;20.30;99.90;;;;;;5033271;28;20532;-69
2021/07/31 02:21:30;;;;;;;2.60;2.40;;;20.30;99.90;;;;;;5033313;28;20481;-69
2021/07/31 02:23:57;;;;;;;2.30;2.10;;;20.20;99.90;;;;;;5033532;28;20441;-69
2021/07/31 02:26:24;;;;;;;2.97;2.27;;;20.10;99.90;;;;;;5036281;28;20445;-69
2021/07/31 02:28:51;;;;;;;2.33;1.80;;;20.10;99.90;;;;;;5037548;28;20635;-69
2021/07/31 02:31:19;;;;;;;2.43;1.80;;;20.10;99.90;;;;;;5037648;28;20942;-69
2021/07/31 02:33:46;;;;;;;2.33;2.03;;;20.10;99.90;;;;;;5037585;28;20804;-69
2021/07/31 02:36:14;;;;;;;1.77;1.67;;;20.00;99.90;;;;;;5037071;28;20445;-69
2021/07/31 02:38:42;;;;;;;2.40;2.03;;;20.00;99.90;;;;;;5037421;28;20452;-69
2021/07/31 02:41:08;;;;;;;3.87;2.77;;;20.00;99.90;;;;;;5037315;28;20939;-69
2021/07/31 02:43:35;;;;;;;3.47;2.23;;;20.00;99.90;;;;;;5037220;28;20454;-69
2021/07/31 02:46:06;;;;;;;3.73;2.60;;;19.90;99.90;;;;;;5037121;28;20451;-69
2021/07/31 02:48:36;;;;;;;3.53;2.53;;;19.80;99.90;;;;;;5037201;28;20805;-69
2021/07/31 02:51:04;;;;;;;2.10;1.90;;;19.80;99.90;;;;;;5037309;28;20531;-69
2021/07/31 02:53:31;;;;;;;1.67;1.57;;;19.70;99.90;;;;;;5037110;28;20441;-69
2021/07/31 02:55:58;;;;;;;2.03;1.80;;;19.70;99.90;;;;;;5036746;28;20546;-69
2021/07/31 02:58:25;;;;;;;2.23;2.10;;;19.70;99.90;;;;;;5036703;28;20554;-69
2021/07/31 03:00:52;;;;;;;2.20;2.00;;;19.70;99.90;;;;;;5036954;28;20527;-69
2021/07/31 03:03:19;;;;;;;1.73;1.63;;;19.60;99.90;;;;;;5036978;28;20443;-69
2021/07/31 03:05:55;;;;;;;1.67;1.57;;;19.60;99.90;;;;;;5036747;28;21005;-69
2021/07/31 03:08:22;;;;;;;1.92;1.77;;;19.70;99.90;;;;;;5036883;28;20479;-69
2021/07/31 03:10:53;;;;;;;1.70;1.60;;;19.60;99.90;;;;;;5036931;28;20229;-69
2021/07/31 03:13:20;;;;;;;2.23;1.80;;;19.60;99.90;;;;;;5036827;28;20439;-69
2021/07/31 03:15:47;;;;;;;3.25;2.03;;;19.50;99.90;;;;;;5036558;28;20447;-69
2021/07/31 03:18:14;;;;;;;3.15;2.03;;;19.30;99.90;;;;;;5036867;28;20237;-69
2021/07/31 03:20:45;;;;;;;2.13;2.03;;;19.30;99.90;;;;;;5036547;28;20209;-69
2021/07/31 03:23:13;;;;;;;2.63;2.42;;;19.20;99.90;;;;;;5036637;28;20439;-69
2021/07/31 03:25:40;;;;;;;4.18;3.15;;;19.20;99.90;;;;;;5036391;28;20306;-69
2021/07/31 03:28:07;;;;;;;2.53;2.33;;;19.20;99.90;;;;;;5036474;28;20319;-69
2021/07/31 03:30:34;;;;;;;3.97;2.60;;;19.10;99.90;;;;;;5036351;28;20579;-69
2021/07/31 03:33:01;;;;;;;2.83;2.63;;;19.10;99.90;;;;;;5036428;28;20439;-69
2021/07/31 03:35:27;;;;;;;2.97;2.67;;;19.00;99.90;;;;;;5036139;28;20204;-69
2021/07/31 03:37:54;;;;;;;2.97;2.67;;;19.00;99.90;;;;;;5036140;28;20229;-69
2021/07/31 03:40:22;;;;;;;3.03;2.72;;;18.90;99.90;;;;;;5036339;28;20291;-70
2021/07/31 03:42:49;;;;;;;2.65;2.45;;;18.80;99.90;;;;;;5036032;28;20782;-70
2021/07/31 03:45:16;;;;;;;3.03;2.13;;;18.80;99.90;;;;;;5035823;28;20692;-70
2021/07/31 03:47:43;;;;;;;2.47;2.28;;;18.80;99.90;;;;;;5035977;28;20702;-70
2021/07/31 03:50:11;;;;;;;2.47;2.28;;;18.70;99.90;;;;;;5036052;28;20230;-70
2021/07/31 03:52:37;;;;;;;5.18;2.15;;;18.60;99.90;;;;;;5035996;28;20585;-70
2021/07/31 03:55:05;;;;;;;2.80;2.13;;;18.60;99.90;;;;;;5035792;28;20206;-70
2021/07/31 03:57:34;;;;;;;3.78;3.00;;;18.50;99.90;;;;;;5036015;28;20243;-70
2021/07/31 04:00:00;;;;;;;1.88;1.67;;;18.50;99.90;;;;;;5035883;28;20200;-70
2021/07/31 04:02:27;;;;;;;3.15;2.17;;;18.50;99.90;;;;;;5035761;28;20243;-70
2021/07/31 04:04:54;;;;;;;2.10;1.90;;;18.50;99.90;;;;;;5035603;28;20204;-70
2021/07/31 04:07:21;;;;;;;2.10;2.00;;;18.40;99.90;;;;;;5035735;28;20240;-70
2021/07/31 04:09:48;;;;;;;2.10;1.95;;;18.40;99.90;;;;;;5035477;28;20224;-70
2021/07/31 04:12:15;;;;;;;2.03;1.83;;;18.30;99.90;;;;;;5035523;28;20235;-69
2021/07/31 04:14:43;;;;;;;2.95;1.65;;;18.30;99.90;;;;;;5035596;28;20210;-68
2021/07/31 04:17:11;;;;;;;3.00;1.50;;;18.30;99.90;;;;;;5035322;28;20231;-69
2021/07/31 04:19:38;;;;;;;1.98;1.60;;;18.30;99.90;;;;;;5035536;28;20208;-69
2021/07/31 04:22:06;;;;;;;1.95;1.75;;;18.30;99.90;;;;;;5035548;28;20310;-69
2021/07/31 04:24:36;;;;;;;2.00;1.83;;;18.20;99.90;;;;;;5035315;28;20204;-69
2021/07/31 04:27:04;;;;;;;1.77;1.67;;;18.20;99.90;;;;;;5035322;28;20276;-69
2021/07/31 04:29:31;;;;;;;5.65;2.15;;;18.20;99.90;;;;;;5035360;28;20315;-69
2021/07/31 04:31:59;;;;;;;3.05;2.10;;;18.20;99.90;;;;;;5035264;28;20204;-69
2021/07/31 04:34:29;;;;;;;2.58;2.05;;;18.20;99.90;;;;;;5035061;28;20204;-69
2021/07/31 04:36:56;;;;;;;2.50;2.30;;;18.20;99.90;;;;;;5034978;28;20224;-69
2021/07/31 04:39:22;;;;;;;2.25;1.95;;;18.30;99.90;;;;;;5034941;28;20211;-69
2021/07/31 04:41:49;;;;;;;2.42;2.22;;;18.30;99.90;;;;;;5035117;28;20210;-69
2021/07/31 04:44:16;;;;;;;1.80;1.65;;;18.20;99.90;;;;;;5035097;28;20208;-69
2021/07/31 04:46:43;;;;;;;1.77;1.67;;;18.20;99.90;;;;;;5034617;28;20730;-69
2021/07/31 04:49:11;;;;;;;2.45;2.25;;;18.20;99.90;;;;;;5034402;28;20608;-69
2021/07/31 04:51:38;;;;;;;1.80;1.70;;;18.20;99.90;;;;;;5034977;28;20200;-69
2021/07/31 04:54:05;;;;;;;1.90;1.75;;;18.20;99.90;;;;;;5035146;28;20207;-69
2021/07/31 04:56:32;;;;;;;1.98;1.88;;;18.20;99.90;;;;;;5034536;28;20220;-69
2021/07/31 04:58:59;;;;;;;2.10;1.90;;;18.20;99.90;;;;;;5034741;28;20204;-70
2021/07/31 05:01:25;;;;;;;2.55;1.67;;;18.20;99.90;;;;;;5034769;28;20287;-69
2021/07/31 05:03:52;;;;;;;2.05;1.90;;;18.20;99.90;;;;;;5034733;28;20294;-69
2021/07/31 05:06:22;;;;;;;2.45;1.50;;;18.10;99.90;;;;;;5034630;28;20200;-69
2021/07/31 05:08:49;;;;;;;2.10;1.90;;;18.20;99.90;;;;;;5035016;28;20251;-69
2021/07/31 05:11:18;;;;;;;2.30;2.08;;;18.10;99.90;;;;;;5034313;28;20224;-69
2021/07/31 05:13:45;;;;;;;2.03;1.92;;;18.00;99.90;;;;;;5034500;28;20208;-69
2021/07/31 05:16:15;;;;;;;2.40;2.15;;;18.10;99.90;;;;;;5034062;28;20216;-70
2021/07/31 05:18:41;;;;;;;1.83;1.73;;;18.10;99.90;;;;;;5034395;28;20287;-69
2021/07/31 05:21:08;;;;;;;1.83;1.73;;;18.10;99.90;;;;;;5034418;28;20210;-69
2021/07/31 05:23:36;;;;;;;1.83;1.73;;;18.10;99.90;;;;;;5034379;28;20214;-69
2021/07/31 05:26:03;;;;;;;2.20;2.00;;;18.20;99.90;;;;;;5033810;28;20208;-69
2021/07/31 05:28:30;;;;;;;2.13;1.95;;;18.20;99.90;;;;;;5034233;28;20310;-69
2021/07/31 05:30:57;;;;;;;2.20;2.00;;;18.20;99.90;;;;;;5034485;28;20224;-69
2021/07/31 05:33:24;;;;;;;1.85;1.70;;;18.20;99.90;;;;;;5034161;28;20631;-69
2021/07/31 05:35:51;;;;;;;2.20;2.00;;;18.20;99.90;;;;;;5033983;28;20294;-69
2021/07/31 05:38:17;;;;;;;1.90;1.77;;;18.20;99.90;;;;;;5033799;28;20721;-69
2021/07/31 05:40:45;;;;;;;2.03;1.60;;;18.30;99.90;;;;;;5033962;28;20291;-69
2021/07/31 05:43:12;;;;;;;1.73;1.63;;;18.30;99.90;;;;;;5034062;28;20294;-69
2021/07/31 05:45:39;;;;;;;2.08;1.90;;;18.20;99.90;;;;;;5033832;28;20223;-69
2021/07/31 05:48:06;;;;;;;1.90;1.80;;;18.20;99.90;;;;;;5033939;28;20226;-69
2021/07/31 05:50:33;;;;;;;2.78;1.90;;;18.20;99.90;;;;;;5033849;28;20250;-69
2021/07/31 05:52:59;;;;;;;2.67;2.00;;;18.20;99.90;;;;;;5033887;28;20206;-69
2021/07/31 05:55:26;;;;;;;2.05;1.85;;;18.20;99.90;;;;;;5033554;28;20291;-69
2021/07/31 05:57:54;;;;;;;1.90;1.80;;;18.20;99.90;;;;;;5033776;28;20318;-69
2021/07/31 06:00:21;;;;;;;2.58;1.60;;;18.20;99.90;;;;;;5032871;28;20204;-69
2021/07/31 06:02:48;;;;;;;1.70;1.60;;;18.20;99.90;;;;;;5033738;28;20230;-69
2021/07/31 06:05:15;;;;;;;4.72;1.90;;;18.20;99.90;;;;;;5033514;28;20208;-69
2021/07/31 06:07:42;;;;;;;2.13;1.85;;;18.20;99.90;;;;;;5033512;28;20698;-69
2021/07/31 06:10:10;;;;;;;1.50;1.40;;;18.30;99.90;;;;;;5033579;28;20581;-69
2021/07/31 06:12:37;;;;;;;2.08;1.60;;;18.30;99.90;;;;;;5033719;28;20205;-69
2021/07/31 06:15:06;;;;;;;2.20;2.00;;;18.40;99.90;;;;;;5033154;28;20753;-69
2021/07/31 06:17:33;;;;;;;1.98;1.55;;;18.40;99.90;;;;;;5033232;28;20240;-69
2021/07/31 06:20:00;;;;;;;3.05;2.80;;;18.40;99.90;;;;;;5033733;28;20283;-69
2021/07/31 06:22:27;;;;;;;2.90;2.15;;;18.50;99.90;;;;;;5033460;28;20204;-69
2021/07/31 06:24:53;;;;;;;3.00;2.28;;;18.40;99.90;;;;;;5033342;28;20231;-70
2021/07/31 06:27:20;;;;;;;3.90;2.40;;;18.50;99.90;;;;;;5033460;28;20228;-69
2021/07/31 06:29:47;;;;;;;3.10;2.00;;;18.60;99.90;;;;;;5033396;28;20646;-69
2021/07/31 06:32:15;;;;;;;2.30;2.10;;;18.50;99.90;;;;;;5033426;28;20299;-69
2021/07/31 06:34:42;;;;;;;1.88;1.67;;;18.60;99.90;;;;;;5033388;28;20299;-68
2021/07/31 06:37:09;;;;;;;1.80;1.70;;;18.60;99.90;;;;;;5033410;28;20312;-69
2021/07/31 06:39:36;;;;;;;1.90;1.80;;;18.70;99.90;;;;;;5033392;28;20204;-69
2021/07/31 06:42:02;;;;;;;2.25;1.67;;;18.70;99.90;;;;;;5033339;28;20207;-69
2021/07/31 06:44:29;;;;;;;3.45;2.20;;;18.70;99.90;;;;;;5033437;28;20207;-70
2021/07/31 06:46:56;;;;;;;2.05;1.85;;;18.80;99.90;;;;;;5033069;28;20259;-69
2021/07/31 06:49:24;;;;;;;2.20;2.00;;;18.80;99.90;;;;;;5033479;28;20563;-69
2021/07/31 06:51:52;;;;;;;1.67;1.55;;;18.90;99.90;;;;;;5033146;28;20228;-69
2021/07/31 06:54:19;;;;;;;3.17;2.88;;;18.90;99.90;;;;;;5033795;28;20258;-70
2021/07/31 06:56:46;;;;;;;2.00;1.73;;;18.90;99.90;;;;;;5032717;28;20312;-69
2021/07/31 06:59:13;;;;;;;2.50;2.28;;;18.90;99.90;;;;;;5033207;28;20205;-69
2021/07/31 07:01:40;;;;;;;3.00;1.80;;;18.90;99.90;;;;;;5033204;28;20621;-69
2021/07/31 07:04:09;;;;;;;2.55;2.35;;;18.90;99.90;;;;;;5033278;28;20337;-69
2021/07/31 07:06:40;;;;;;;2.23;1.87;;;18.90;99.90;;;;;;5032871;28;20582;-69
2021/07/31 07:09:07;;;;;;;1.52;1.42;;;19.00;99.90;;;;;;5032924;28;20426;-69
2021/07/31 07:11:34;;;;;;;2.13;1.93;;;19.10;99.90;;;;;;5034416;28;20319;-69
2021/07/31 07:14:00;;;;;;;2.13;1.93;;;19.20;99.90;;;;;;5036819;28;20452;-69
2021/07/31 07:16:27;;;;;;;1.80;1.70;;;19.40;99.90;;;;;;5036239;28;20560;-69
2021/07/31 07:18:54;;;;;;;2.00;1.80;;;19.50;99.90;;;;;;5036812;28;20531;-69
2021/07/31 07:21:21;;;;;;;1.80;1.70;;;19.60;99.90;;;;;;5036674;28;20537;-69
2021/07/31 07:23:49;;;;;;;2.20;2.00;;;19.70;99.90;;;;;;5036732;28;20531;-69
2021/07/31 07:26:16;;;;;;;2.00;1.90;;;19.80;99.90;;;;;;5036359;28;20471;-69
2021/07/31 07:28:42;;;;;;;2.43;1.73;;;19.90;99.90;;;;;;5036565;28;20449;-69
2021/07/31 07:31:11;;;;;;;1.70;1.60;;;20.00;99.90;;;;;;5036483;28;20571;-69
2021/07/31 07:33:38;;;;;;;1.90;1.80;;;20.00;99.90;;;;;;5036382;28;20958;-69
2021/07/31 07:36:11;;;;;;;1.70;1.60;;;20.00;99.90;;;;;;5036083;28;20535;-69
2021/07/31 07:38:39;;;;;;;1.63;1.50;;;20.10;99.90;;;;;;5036510;28;20441;-69
2021/07/31 07:41:07;;;;;;;2.17;1.97;;;20.20;99.90;;;;;;5036268;28;20446;-69
2021/07/31 07:43:34;;;;;;;1.90;1.73;;;20.20;99.90;;;;;;5036353;28;20990;-69
2021/07/31 07:46:01;;;;;;;2.10;1.73;;;20.30;99.90;;;;;;5035997;28;20456;-69
2021/07/31 07:48:28;;;;;;;1.93;1.80;;;20.30;99.90;;;;;;5036303;28;20469;-69
2021/07/31 07:50:55;;;;;;;2.83;1.83;;;20.40;99.90;;;;;;5036100;28;20482;-69
2021/07/31 07:53:22;;;;;;;2.03;1.70;;;20.50;99.90;;;;;;5035964;28;20449;-69
2021/07/31 07:55:49;;;;;;;2.43;1.90;;;20.50;99.90;;;;;;5035799;28;20785;-69
2021/07/31 07:58:17;;;;;;;1.63;1.53;;;20.60;99.90;;;;;;5035667;28;20509;-69
2021/07/31 08:00:44;;;;;;;2.10;1.70;;;20.50;99.90;;;;;;5035915;28;20442;-69
2021/07/31 08:03:11;;;;;;;2.10;1.90;;;20.50;99.80;;;;;;5035669;28;20995;-69
2021/07/31 08:05:38;;;;;;;1.80;1.70;;;20.70;99.90;;;;;;5035587;28;20540;-69
2021/07/31 08:08:06;;;;;;;1.70;1.60;;;21.10;98.90;;;;;;5036067;28;20482;-69
2021/07/31 08:10:32;;;;;;;1.83;1.73;;;21.80;96.80;;;;;;5035703;28;20481;-69
2021/07/31 08:12:59;;;;;;;1.73;1.53;;;22.50;95.90;;;;;;5035640;28;20544;-69
2021/07/31 08:15:28;;;;;;;1.40;1.30;;;24.00;93.10;;;;;;5035863;28;20453;-69
2021/07/31 08:17:55;;;;;;;1.50;1.40;;;25.50;88.60;;;;;;5035504;28;20482;-69
2021/07/31 08:20:22;;;;;;;1.57;1.47;;;26.50;82.00;;;;;;5035642;28;20439;-69
2021/07/31 08:22:49;;;;;;;1.83;1.73;;;27.70;75.10;;;;;;5034621;28;20448;-70
2021/07/31 08:25:16;;;;;;;1.67;1.53;;;28.80;69.80;;;;;;5035182;28;20454;-70
2021/07/31 08:27:43;;;;;;;1.63;1.53;;;28.70;65.60;;;;;;5035358;28;20468;-69
2021/07/31 08:30:11;;;;;;;1.57;1.47;;;28.10;65.20;;;;;;5035395;28;20449;-70
2021/07/31 08:32:39;;;;;;;1.57;1.47;;;28.20;64.50;;;;;;5035440;28;20568;-70
2021/07/31 08:35:06;;;;;;;3.27;1.57;;;28.50;62.90;;;;;;5035279;28;20543;-70
2021/07/31 08:37:37;;;;;;;1.50;1.40;;;27.80;63.40;;;;;;5035007;28;20471;-70
2021/07/31 08:40:07;;;;;;;1.50;1.40;;;28.10;62.90;;;;;;5035729;28;20434;-70
2021/07/31 08:42:35;;;;;;;1.60;1.50;;;27.80;61.00;;;;;;5035411;28;20438;-69
2021/07/31 08:45:03;;;;;;;1.80;1.70;;;26.60;64.50;;;;;;5035230;28;20537;-69
2021/07/31 08:47:30;;;;;;;1.90;1.80;;;26.80;65.30;;;;;;5034834;28;20481;-69
2021/07/31 08:49:59;;;;;;;2.43;2.30;;;26.60;66.00;;;;;;5035195;28;20497;-70
2021/07/31 08:52:31;;;;;;;5.20;3.87;;;27.30;65.40;;;;;;5034781;28;20566;-70
2021/07/31 08:54:58;;;;;;;1.70;1.60;;;28.00;63.60;;;;;;5034786;28;20491;-70
2021/07/31 08:57:25;;;;;;;2.90;1.73;;;28.50;64.10;;;;;;5034886;28;20468;-70
2021/07/31 08:59:53;;;;;;;1.60;1.50;;;29.70;59.80;;;;;;5034846;28;20481;-70
2021/07/31 09:02:20;;;;;;;2.00;1.83;;;30.60;56.30;;;;;;5034765;28;20766;-70
2021/07/31 09:04:50;;;;;;;1.70;1.60;;;29.90;56.30;;;;;;5034531;28;20450;-69
2021/07/31 09:07:18;;;;;;;2.03;1.87;;;30.50;56.00;;;;;;5034668;28;20972;-70
2021/07/31 09:09:46;;;;;;;1.80;1.70;;;31.30;54.60;;;;;;5034662;28;20450;-70
2021/07/31 09:12:13;;;;;;;1.40;1.40;;;32.50;51.50;;;;;;5034525;28;20478;-70
2021/07/31 09:14:46;;;;;;;3.47;1.90;;;32.80;48.90;;;;;;5034428;28;20439;-70
2021/07/31 09:17:24;;;;;;;2.20;1.90;;;32.00;49.80;;;;;;5034314;28;20677;-71
2021/07/31 09:19:51;;;;;;;2.07;1.83;;;32.70;49.50;;;;;;5034450;28;20442;-70
2021/07/31 09:22:20;;;;;;;1.93;1.83;;;32.70;48.50;;;;;;5034400;28;20442;-70
2021/07/31 09:25:10;;;;;;;1.90;1.80;;;32.10;49.90;;;;;;5034171;28;20450;-71
2021/07/31 09:27:37;;;;;;;2.10;1.90;;;31.80;50.10;;;;;;5034018;28;20467;-70
2021/07/31 09:30:07;;;;;;;1.87;1.77;;;31.20;49.90;;;;;;5034056;28;20454;-70
2021/07/31 09:32:40;;;;;;;2.83;1.73;;;30.00;52.30;;;;;;5033896;28;20478;-70
2021/07/31 09:35:21;;;;;;;1.80;1.70;;;29.40;53.40;;;;;;5033905;28;20529;-70
2021/07/31 09:37:50;;;;;;;1.93;1.83;;;30.40;54.00;;;;;;5034189;28;20466;-70
2021/07/31 09:40:31;;;;;;;1.70;1.60;;;31.20;50.80;;;;;;5034221;28;20444;-70
2021/07/31 09:43:12;;;;;;;2.80;2.47;;;30.50;52.40;;;;;;5034056;28;20790;-70
2021/07/31 09:45:40;;;;;;;2.77;2.57;;;28.90;55.60;;;;;;5033821;28;20447;-69
2021/07/31 09:48:08;;;;;;;1.90;1.60;;;28.10;56.10;;;;;;5033939;28;20898;-70
2021/07/31 09:50:40;;;;;;;2.03;1.93;;;27.50;56.40;;;;;;5033888;28;20481;-70
2021/07/31 09:53:13;;;;;;;1.93;1.83;;;26.90;59.10;;;;;;5033806;28;20569;-70
2021/07/31 09:55:45;;;;;;;2.47;2.20;;;27.20;60.70;;;;;;5033578;28;20943;-70
2021/07/31 09:58:15;;;;;;;1.60;1.30;;;29.00;58.60;;;;;;5033900;28;20849;-70
2021/07/31 10:00:45;;;;;;;1.77;1.67;;;30.60;53.80;;;;;;5033813;28;20816;-70
2021/07/31 10:03:13;;;;;;;1.50;1.40;;;31.60;50.70;;;;;;5033729;28;20446;-70
2021/07/31 10:05:41;;;;;;;1.60;1.50;;;32.40;49.70;;;;;;5033917;28;20438;-70
2021/07/31 10:08:08;;;;;;;2.10;1.50;;;32.80;51.00;;;;;;5033752;28;20494;-70
2021/07/31 10:10:36;;;;;;;1.70;1.60;;;33.00;47.30;;;;;;5033638;28;20525;-70
2021/07/31 10:13:04;;;;;;;1.63;1.53;;;33.20;47.50;;;;;;5033590;28;20840;-70
2021/07/31 10:15:31;;;;;;;1.77;1.67;;;33.40;47.00;;;;;;5033391;28;20447;-70
2021/07/31 10:17:59;;;;;;;2.20;1.70;;;32.90;48.40;;;;;;5033247;28;20482;-70
2021/07/31 10:20:27;;;;;;;1.90;1.80;;;33.20;46.20;;;;;;5033455;28;20446;-70
2021/07/31 10:22:55;;;;;;;2.40;2.20;;;34.10;45.30;;;;;;5033473;28;20787;-70
2021/07/31 10:25:22;;;;;;;1.50;1.40;;;34.60;42.90;;;;;;5033460;28;20446;-70
2021/07/31 10:27:53;;;;;;;1.47;1.37;;;35.00;43.60;;;;;;5033438;28;20471;-70
2021/07/31 10:30:28;;;;;;;1.40;1.30;;;35.80;41.20;;;;;;5034082;28;20746;-70
2021/07/31 10:32:56;;;;;;;1.10;1.10;;;36.30;40.70;;;;;;5033360;28;20474;-71
2021/07/31 10:35:33;;;;;;;1.57;1.47;;;36.30;37.50;;;;;;5033200;28;20808;-70
2021/07/31 10:38:01;;;;;;;1.30;1.30;;;36.60;39.50;;;;;;5033433;28;20509;-71
2021/07/31 10:40:56;;;;;;;1.53;1.43;;;36.70;38.30;;;;;;5033376;28;20453;-71
2021/07/31 10:43:27;;;;;;;1.80;1.40;;;36.90;37.80;;;;;;5033330;28;20526;-70
2021/07/31 10:46:24;;;;;;;1.60;1.50;;;36.60;37.90;;;;;;5033528;28;20805;-70
2021/07/31 10:48:51;;;;;;;2.70;1.67;;;35.00;37.70;;;;;;5014017;28;20554;-70
2021/07/31 10:51:40;;;;;;;1.60;1.47;;;32.90;40.50;;;;;;5036828;28;20972;-70
2021/07/31 10:54:07;;;;;;;2.10;1.90;;;31.00;43.70;;;;;;5037190;28;20442;-70
2021/07/31 10:56:55;;;;;;;1.67;1.57;;;29.40;46.10;;;;;;5036930;28;20470;-70
2021/07/31 10:59:23;;;;;;;1.90;1.80;;;28.50;47.60;;;;;;5036901;28;20936;-70
2021/07/31 11:01:50;;;;;;;2.27;2.07;;;27.60;52.40;;;;;;5037092;28;20542;-69
2021/07/31 11:04:54;;;;;;;1.83;1.73;;;26.50;53.10;;;;;;5037082;28;20528;-69
2021/07/31 11:07:25;;;;;;;2.60;1.80;;;25.40;55.00;;;;;;5036690;28;20484;-69
2021/07/31 11:10:30;;;;;;;1.60;1.50;;;25.30;57.80;;;;;;5036983;28;20463;-69
2021/07/31 11:12:57;;;;;;;1.87;1.60;;;25.70;57.20;;;;;;5036827;28;20845;-70
2021/07/31 11:15:25;;;;;;;1.90;1.80;;;26.00;55.00;;;;;;5036677;28;20533;-70
2021/07/31 11:17:57;;;;;;;2.20;1.70;;;26.00;53.40;;;;;;5036565;28;20585;-70
2021/07/31 11:20:25;;;;;;;1.67;1.57;;;25.70;54.80;;;;;;5036689;28;20469;-69
2021/07/31 11:22:54;;;;;;;1.80;1.70;;;25.60;54.40;;;;;;5036362;28;20442;-69
2021/07/31 11:25:21;;;;;;;1.93;1.80;;;25.30;57.30;;;;;;5036492;28;20536;-70
2021/07/31 11:27:56;;;;;;;2.63;2.07;;;25.00;59.20;;;;;;5036765;28;20471;-70
2021/07/31 11:30:34;;;;;;;1.97;1.87;;;25.30;56.40;;;;;;5036499;28;21003;-70
2021/07/31 11:33:16;;;;;;;1.67;1.50;;;25.60;59.10;;;;;;5036363;28;20482;-69
2021/07/31 11:35:44;;;;;;;1.70;1.60;;;25.80;57.80;;;;;;5036324;28;20442;-70
2021/07/31 11:38:26;;;;;;;1.80;1.70;;;25.90;60.00;;;;;;5036423;28;20889;-69
2021/07/31 11:41:07;;;;;;;4.90;2.80;;;25.90;57.10;;;;;;5036377;28;20442;-69
2021/07/31 11:43:48;;;;;;;2.20;2.00;;;25.80;58.70;;;;;;5036529;28;20442;-69
2021/07/31 11:46:30;;;;;;;2.70;2.07;;;25.60;57.90;;;;;;5036470;28;20449;-70
2021/07/31 11:48:58;;;;;;;3.30;2.77;;;25.50;57.80;;;;;;5036265;28;20437;-70
2021/07/31 11:51:26;;;;;;;1.83;1.70;;;25.50;59.70;;;;;;5036049;28;20880;-70
2021/07/31 11:53:53;;;;;;;1.50;1.40;;;25.40;58.80;;;;;;5035858;28;20447;-69
2021/07/31 11:56:21;;;;;;;1.90;1.60;;;25.50;59.90;;;;;;5035864;28;20442;-69
2021/07/31 11:58:50;;;;;;;1.83;1.70;;;25.20;58.00;;;;;;5034728;28;20541;-69
2021/07/31 12:01:18;;;;;;;2.17;1.93;;;24.50;58.10;;;;;;5035938;28;20447;-69
2021/07/31 12:03:47;;;;;;;2.07;1.97;;;24.10;60.60;;;;;;5035792;28;20479;-69
2021/07/31 12:06:35;;;;;;;1.93;1.83;;;24.10;62.20;;;;;;5035447;28;20530;-70
2021/07/31 12:09:03;;;;;;;1.50;1.40;;;24.60;65.90;;;;;;5036024;28;20438;-69
2021/07/31 12:11:34;;;;;;;1.70;1.60;;;25.00;62.20;;;;;;5035750;28;20442;-69
2021/07/31 12:14:01;;;;;;;1.53;1.40;;;25.30;60.30;;;;;;5035712;28;20530;-69
2021/07/31 12:16:28;;;;;;;2.03;1.90;;;25.60;57.60;;;;;;5035241;28;20477;-70
2021/07/31 12:18:57;;;;;;;1.80;1.70;;;25.80;58.40;;;;;;5035902;28;20460;-69
2021/07/31 12:21:25;;;;;;;2.80;1.90;;;25.30;56.20;;;;;;5035435;28;21009;-69
2021/07/31 12:23:52;;;;;;;1.40;1.30;;;25.20;59.00;;;;;;5035655;28;20461;-70
2021/07/31 12:26:28;;;;;;;1.50;1.40;;;25.40;58.50;;;;;;5035416;28;20447;-70
2021/07/31 12:28:56;;;;;;;2.13;1.40;;;25.40;58.60;;;;;;5035176;28;20435;-70
2021/07/31 12:31:24;;;;;;;2.50;1.87;;;25.70;57.40;;;;;;5035651;28;20450;-69
2021/07/31 12:33:52;;;;;;;1.93;1.57;;;26.00;57.00;;;;;;5035277;28;20485;-69
2021/07/31 12:36:20;;;;;;;1.63;1.53;;;26.00;56.60;;;;;;5034954;28;20786;-70
2021/07/31 12:38:47;;;;;;;1.60;1.50;;;25.70;56.40;;;;;;5035360;28;20477;-69
2021/07/31 12:41:14;;;;;;;1.73;1.63;;;25.40;57.90;;;;;;5035265;28;20774;-69
2021/07/31 12:43:41;;;;;;;1.60;1.50;;;25.60;57.90;;;;;;5035040;28;20996;-70
2021/07/31 12:46:08;;;;;;;1.83;1.73;;;25.70;59.30;;;;;;5034743;28;20948;-70
2021/07/31 12:48:35;;;;;;;2.03;1.93;;;25.80;60.40;;;;;;5035024;28;20466;-70
2021/07/31 12:51:03;;;;;;;2.67;1.70;;;25.90;58.80;;;;;;5035067;28;20443;-69
2021/07/31 12:53:31;;;;;;;1.70;1.60;;;26.20;57.90;;;;;;5034938;28;20501;-69
2021/07/31 12:55:58;;;;;;;1.70;1.60;;;26.20;56.30;;;;;;5034597;28;20451;-70